sensor_id;sensor_type;location;lat;lon;timestamp;pressure;altitude;pressure_sealevel;temperature
15845;BMP180;50807;52.436;13.346;2022-09-09T00:00:16;100576.00;;;19.30
15845;BMP180;50807;52.436;13.346;2022-09-09T00:00:54;100578.00;;;19.30
15845;BMP180;50807;52.436;13.346;2022-09-09T00:01:37;100580.00;;;19.20
15845;BMP180;50807;52.436;13.346;2022-09-09T00:02:18;100578.00;;;19.20
15845;BMP180;50807;52.436;13.346;2022-09-09T00:02:59;100577.00;;;19.20
15845;BMP180;50807;52.436;13.346;2022-09-09T00:03:43;100578.00;;;19.20
15845;BMP180;50807;52.436;13.346;2022-09-09T00:04:26;100579.00;;;19.10
15845;BMP180;50807;52.436;13.346;2022-09-09T00:05:12;100578.00;;;19.10
15845;BMP180;50807;52.436;13.346;2022-09-09T00:05:55;100576.00;;;19.10
15845;BMP180;50807;52.436;13.346;2022-09-09T00:06:34;100577.00;;;19.10
15845;BMP180;50807;52.436;13.346;2022-09-09T00:07:19;100578.00;;;19.10
15845;BMP180;50807;52.436;13.346;2022-09-09T00:07:58;100578.00;;;19.10
15845;BMP180;50807;52.436;13.346;2022-09-09T00:08:43;100578.00;;;19.00
15845;BMP180;50807;52.436;13.346;2022-09-09T00:09:19;100577.00;;;19.10
15845;BMP180;50807;52.436;13.346;2022-09-09T00:10:04;100581.00;;;19.00
15845;BMP180;50807;52.436;13.346;2022-09-09T00:10:39;100574.00;;;19.10
15845;BMP180;50807;52.436;13.346;2022-09-09T00:11:18;100578.00;;;19.10
15845;BMP180;50807;52.436;13.346;2022-09-09T00:11:59;100576.00;;;19.00
15845;BMP180;50807;52.436;13.346;2022-09-09T00:12:44;100573.00;;;19.00
15845;BMP180;50807;52.436;13.346;2022-09-09T00:13:27;100572.00;;;19.00
15845;BMP180;50807;52.436;13.346;2022-09-09T00:14:03;100580.00;;;19.00
15845;BMP180;50807;52.436;13.346;2022-09-09T00:14:49;100575.00;;;19.00
15845;BMP180;50807;52.436;13.346;2022-09-09T00:15:26;100569.00;;;19.00
15845;BMP180;50807;52.436;13.346;2022-09-09T00:16:08;100580.00;;;18.90
15845;BMP180;50807;52.436;13.346;2022-09-09T00:16:50;100572.00;;;18.90
15845;BMP180;50807;52.436;13.346;2022-09-09T00:17:35;100569.00;;;18.90
15845;BMP180;50807;52.436;13.346;2022-09-09T00:18:18;100573.00;;;18.90
15845;BMP180;50807;52.436;13.346;2022-09-09T00:19:02;100576.00;;;18.90
15845;BMP180;50807;52.436;13.346;2022-09-09T00:19:44;100562.00;;;18.90
15845;BMP180;50807;52.436;13.346;2022-09-09T00:20:26;100569.00;;;18.90
15845;BMP180;50807;52.436;13.346;2022-09-09T00:21:06;100564.00;;;18.90
15845;BMP180;50807;52.436;13.346;2022-09-09T00:21:45;100565.00;;;18.90
15845;BMP180;50807;52.436;13.346;2022-09-09T00:22:19;100567.00;;;18.90
15845;BMP180;50807;52.436;13.346;2022-09-09T00:23:02;100563.00;;;18.90
15845;BMP180;50807;52.436;13.346;2022-09-09T00:23:39;100558.00;;;18.90
15845;BMP180;50807;52.436;13.346;2022-09-09T00:24:27;100567.00;;;18.80
15845;BMP180;50807;52.436;13.346;2022-09-09T00:25:10;100564.00;;;18.80
15845;BMP180;50807;52.436;13.346;2022-09-09T00:25:54;100571.00;;;18.80
15845;BMP180;50807;52.436;13.346;2022-09-09T00:26:36;100570.00;;;18.80
15845;BMP180;50807;52.436;13.346;2022-09-09T00:27:21;100568.00;;;18.80
15845;BMP180;50807;52.436;13.346;2022-09-09T00:27:54;100561.00;;;18.90
15845;BMP180;50807;52.436;13.346;2022-09-09T00:28:27;100566.00;;;18.90
15845;BMP180;50807;52.436;13.346;2022-09-09T00:29:08;100567.00;;;18.90
15845;BMP180;50807;52.436;13.346;2022-09-09T00:29:47;100567.00;;;18.90
15845;BMP180;50807;52.436;13.346;2022-09-09T00:30:26;100563.00;;;18.90
15845;BMP180;50807;52.436;13.346;2022-09-09T00:31:04;100566.00;;;18.90
15845;BMP180;50807;52.436;13.346;2022-09-09T00:31:39;100567.00;;;18.90
15845;BMP180;50807;52.436;13.346;2022-09-09T00:32:14;100566.00;;;18.90
15845;BMP180;50807;52.436;13.346;2022-09-09T00:32:45;100566.00;;;19.00
15845;BMP180;50807;52.436;13.346;2022-09-09T00:33:20;100559.00;;;18.90
15845;BMP180;50807;52.436;13.346;2022-09-09T00:33:55;100553.00;;;19.00
15845;BMP180;50807;52.436;13.346;2022-09-09T00:34:30;100558.00;;;19.00
15845;BMP180;50807;52.436;13.346;2022-09-09T00:35:14;100558.00;;;18.90
15845;BMP180;50807;52.436;13.346;2022-09-09T00:35:50;100553.00;;;18.90
15845;BMP180;50807;52.436;13.346;2022-09-09T00:36:26;100554.00;;;18.90
15845;BMP180;50807;52.436;13.346;2022-09-09T00:37:00;100559.00;;;18.90
15845;BMP180;50807;52.436;13.346;2022-09-09T00:37:32;100559.00;;;19.00
15845;BMP180;50807;52.436;13.346;2022-09-09T00:38:13;100554.00;;;18.90
15845;BMP180;50807;52.436;13.346;2022-09-09T00:38:49;100564.00;;;18.90
15845;BMP180;50807;52.436;13.346;2022-09-09T00:39:31;100555.00;;;18.90
15845;BMP180;50807;52.436;13.346;2022-09-09T00:40:12;100559.00;;;18.90
15845;BMP180;50807;52.436;13.346;2022-09-09T00:40:52;100556.00;;;18.90
15845;BMP180;50807;52.436;13.346;2022-09-09T00:41:40;100560.00;;;18.80
15845;BMP180;50807;52.436;13.346;2022-09-09T00:42:17;100560.00;;;18.80
15845;BMP180;50807;52.436;13.346;2022-09-09T00:42:54;100555.00;;;18.80
15845;BMP180;50807;52.436;13.346;2022-09-09T00:43:31;100558.00;;;18.90
15845;BMP180;50807;52.436;13.346;2022-09-09T00:44:22;100551.00;;;18.80
15845;BMP180;50807;52.436;13.346;2022-09-09T00:45:17;100546.00;;;18.80
15845;BMP180;50807;52.436;13.346;2022-09-09T00:47:49;100554.00;;;18.60
15845;BMP180;50807;52.436;13.346;2022-09-09T00:48:28;100547.00;;;18.70
15845;BMP180;50807;52.436;13.346;2022-09-09T00:49:09;100550.00;;;18.70
15845;BMP180;50807;52.436;13.346;2022-09-09T00:49:59;100560.00;;;18.70
15845;BMP180;50807;52.436;13.346;2022-09-09T00:50:45;100561.00;;;18.70
15845;BMP180;50807;52.436;13.346;2022-09-09T00:51:32;100565.00;;;18.70
15845;BMP180;50807;52.436;13.346;2022-09-09T00:52:23;100559.00;;;18.60
15845;BMP180;50807;52.436;13.346;2022-09-09T00:53:14;100557.00;;;18.60
15845;BMP180;50807;52.436;13.346;2022-09-09T00:54:10;100559.00;;;18.60
15845;BMP180;50807;52.436;13.346;2022-09-09T00:54:54;100561.00;;;18.60
15845;BMP180;50807;52.436;13.346;2022-09-09T00:55:40;100551.00;;;18.50
15845;BMP180;50807;52.436;13.346;2022-09-09T00:56:14;100554.00;;;18.60
15845;BMP180;50807;52.436;13.346;2022-09-09T00:57:01;100557.00;;;18.60
15845;BMP180;50807;52.436;13.346;2022-09-09T00:57:35;100549.00;;;18.60
15845;BMP180;50807;52.436;13.346;2022-09-09T00:58:08;100553.00;;;18.70
15845;BMP180;50807;52.436;13.346;2022-09-09T00:58:42;100557.00;;;18.70
15845;BMP180;50807;52.436;13.346;2022-09-09T00:59:28;100554.00;;;18.60
15845;BMP180;50807;52.436;13.346;2022-09-09T01:00:23;100552.00;;;18.50
15845;BMP180;50807;52.436;13.346;2022-09-09T01:01:03;100562.00;;;18.50
15845;BMP180;50807;52.436;13.346;2022-09-09T01:01:37;100559.00;;;18.60
15845;BMP180;50807;52.436;13.346;2022-09-09T01:02:21;100553.00;;;18.50
15845;BMP180;50807;52.436;13.346;2022-09-09T01:03:15;100561.00;;;18.50
15845;BMP180;50807;52.436;13.346;2022-09-09T01:03:54;100563.00;;;18.50
15845;BMP180;50807;52.436;13.346;2022-09-09T01:04:34;100565.00;;;18.50
15845;BMP180;50807;52.436;13.346;2022-09-09T01:05:13;100564.00;;;18.50
15845;BMP180;50807;52.436;13.346;2022-09-09T01:06:00;100572.00;;;18.50
15845;BMP180;50807;52.436;13.346;2022-09-09T01:06:36;100560.00;;;18.50
15845;BMP180;50807;52.436;13.346;2022-09-09T01:07:16;100565.00;;;18.50
15845;BMP180;50807;52.436;13.346;2022-09-09T01:07:49;100571.00;;;18.50
15845;BMP180;50807;52.436;13.346;2022-09-09T01:09:04;100564.00;;;18.30
15845;BMP180;50807;52.436;13.346;2022-09-09T01:09:52;100567.00;;;18.30
15845;BMP180;50807;52.436;13.346;2022-09-09T01:10:37;100567.00;;;18.30
15845;BMP180;50807;52.436;13.346;2022-09-09T01:11:22;100565.00;;;18.30
15845;BMP180;50807;52.436;13.346;2022-09-09T01:12:03;100563.00;;;18.30
15845;BMP180;50807;52.436;13.346;2022-09-09T01:12:41;100560.00;;;18.40
15845;BMP180;50807;52.436;13.346;2022-09-09T01:13:22;100558.00;;;18.40
15845;BMP180;50807;52.436;13.346;2022-09-09T01:14:02;100559.00;;;18.40
15845;BMP180;50807;52.436;13.346;2022-09-09T01:14:43;100563.00;;;18.40
15845;BMP180;50807;52.436;13.346;2022-09-09T01:15:24;100563.00;;;18.40
15845;BMP180;50807;52.436;13.346;2022-09-09T01:15:59;100559.00;;;18.50
15845;BMP180;50807;52.436;13.346;2022-09-09T01:16:31;100565.00;;;18.50
15845;BMP180;50807;52.436;13.346;2022-09-09T01:17:09;100563.00;;;18.50
15845;BMP180;50807;52.436;13.346;2022-09-09T01:17:58;100565.00;;;18.40
15845;BMP180;50807;52.436;13.346;2022-09-09T01:18:36;100568.00;;;18.50
15845;BMP180;50807;52.436;13.346;2022-09-09T01:19:18;100565.00;;;18.50
15845;BMP180;50807;52.436;13.346;2022-09-09T01:20:03;100567.00;;;18.40
15845;BMP180;50807;52.436;13.346;2022-09-09T01:20:49;100568.00;;;18.40
15845;BMP180;50807;52.436;13.346;2022-09-09T01:21:35;100564.00;;;18.40
15845;BMP180;50807;52.436;13.346;2022-09-09T01:22:18;100564.00;;;18.40
15845;BMP180;50807;52.436;13.346;2022-09-09T01:23:20;100564.00;;;18.30
15845;BMP180;50807;52.436;13.346;2022-09-09T01:24:19;100565.00;;;18.30
15845;BMP180;50807;52.436;13.346;2022-09-09T01:25:13;100569.00;;;18.30
15845;BMP180;50807;52.436;13.346;2022-09-09T01:26:21;100567.00;;;18.20
15845;BMP180;50807;52.436;13.346;2022-09-09T01:26:58;100558.00;;;18.30
15845;BMP180;50807;52.436;13.346;2022-09-09T01:27:35;100567.00;;;18.40
15845;BMP180;50807;52.436;13.346;2022-09-09T01:28:11;100561.00;;;18.40
15845;BMP180;50807;52.436;13.346;2022-09-09T01:28:47;100560.00;;;18.40
15845;BMP180;50807;52.436;13.346;2022-09-09T01:29:21;100564.00;;;18.40
15845;BMP180;50807;52.436;13.346;2022-09-09T01:29:54;100569.00;;;18.50
15845;BMP180;50807;52.436;13.346;2022-09-09T01:30:26;100562.00;;;18.50
15845;BMP180;50807;52.436;13.346;2022-09-09T01:31:00;100567.00;;;18.40
15845;BMP180;50807;52.436;13.346;2022-09-09T01:31:37;100565.00;;;18.40
15845;BMP180;50807;52.436;13.346;2022-09-09T01:32:43;100573.00;;;18.20
15845;BMP180;50807;52.436;13.346;2022-09-09T01:33:17;100564.00;;;18.30
15845;BMP180;50807;52.436;13.346;2022-09-09T01:33:50;100570.00;;;18.30
15845;BMP180;50807;52.436;13.346;2022-09-09T01:34:23;100570.00;;;18.40
15845;BMP180;50807;52.436;13.346;2022-09-09T01:34:54;100568.00;;;18.40
15845;BMP180;50807;52.436;13.346;2022-09-09T01:35:44;100560.00;;;18.30
15845;BMP180;50807;52.436;13.346;2022-09-09T01:36:26;100565.00;;;18.30
15845;BMP180;50807;52.436;13.346;2022-09-09T01:37:04;100553.00;;;18.30
15845;BMP180;50807;52.436;13.346;2022-09-09T01:37:35;100558.00;;;18.30
15845;BMP180;50807;52.436;13.346;2022-09-09T01:38:07;100553.00;;;18.30
15845;BMP180;50807;52.436;13.346;2022-09-09T01:38:38;100561.00;;;18.40
15845;BMP180;50807;52.436;13.346;2022-09-09T01:39:11;100558.00;;;18.40
15845;BMP180;50807;52.436;13.346;2022-09-09T01:39:44;100562.00;;;18.40
15845;BMP180;50807;52.436;13.346;2022-09-09T01:40:15;100561.00;;;18.40
15845;BMP180;50807;52.436;13.346;2022-09-09T01:40:48;100562.00;;;18.40
15845;BMP180;50807;52.436;13.346;2022-09-09T01:41:21;100562.00;;;18.40
15845;BMP180;50807;52.436;13.346;2022-09-09T01:41:52;100558.00;;;18.40
15845;BMP180;50807;52.436;13.346;2022-09-09T01:42:23;100560.00;;;18.40
15845;BMP180;50807;52.436;13.346;2022-09-09T01:42:56;100556.00;;;18.40
15845;BMP180;50807;52.436;13.346;2022-09-09T01:43:28;100558.00;;;18.40
15845;BMP180;50807;52.436;13.346;2022-09-09T01:43:59;100561.00;;;18.40
15845;BMP180;50807;52.436;13.346;2022-09-09T01:44:32;100558.00;;;18.40
15845;BMP180;50807;52.436;13.346;2022-09-09T01:45:05;100558.00;;;18.40
15845;BMP180;50807;52.436;13.346;2022-09-09T01:45:37;100560.00;;;18.40
15845;BMP180;50807;52.436;13.346;2022-09-09T01:46:12;100562.00;;;18.40
15845;BMP180;50807;52.436;13.346;2022-09-09T01:46:44;100554.00;;;18.40
15845;BMP180;50807;52.436;13.346;2022-09-09T01:47:15;100563.00;;;18.40
15845;BMP180;50807;52.436;13.346;2022-09-09T01:47:49;100558.00;;;18.40
15845;BMP180;50807;52.436;13.346;2022-09-09T01:48:22;100560.00;;;18.40
15845;BMP180;50807;52.436;13.346;2022-09-09T01:48:56;100560.00;;;18.40
15845;BMP180;50807;52.436;13.346;2022-09-09T01:49:28;100555.00;;;18.40
15845;BMP180;50807;52.436;13.346;2022-09-09T01:50:00;100552.00;;;18.40
15845;BMP180;50807;52.436;13.346;2022-09-09T01:50:32;100553.00;;;18.40
15845;BMP180;50807;52.436;13.346;2022-09-09T01:51:04;100558.00;;;18.40
15845;BMP180;50807;52.436;13.346;2022-09-09T01:51:37;100553.00;;;18.40
15845;BMP180;50807;52.436;13.346;2022-09-09T01:52:09;100561.00;;;18.40
15845;BMP180;50807;52.436;13.346;2022-09-09T01:52:42;100551.00;;;18.40
15845;BMP180;50807;52.436;13.346;2022-09-09T01:53:16;100566.00;;;18.40
15845;BMP180;50807;52.436;13.346;2022-09-09T01:53:47;100560.00;;;18.40
15845;BMP180;50807;52.436;13.346;2022-09-09T01:54:22;100558.00;;;18.40
15845;BMP180;50807;52.436;13.346;2022-09-09T01:54:54;100567.00;;;18.50
15845;BMP180;50807;52.436;13.346;2022-09-09T01:55:30;100559.00;;;18.40
15845;BMP180;50807;52.436;13.346;2022-09-09T01:56:15;100562.00;;;18.30
15845;BMP180;50807;52.436;13.346;2022-09-09T01:57:06;100561.00;;;18.30
15845;BMP180;50807;52.436;13.346;2022-09-09T01:57:46;100563.00;;;18.30
15845;BMP180;50807;52.436;13.346;2022-09-09T01:58:33;100569.00;;;18.20
15845;BMP180;50807;52.436;13.346;2022-09-09T01:59:21;100569.00;;;18.20
15845;BMP180;50807;52.436;13.346;2022-09-09T02:00:03;100563.00;;;18.20
15845;BMP180;50807;52.436;13.346;2022-09-09T02:00:44;100559.00;;;18.20
15845;BMP180;50807;52.436;13.346;2022-09-09T02:01:33;100565.00;;;18.20
15845;BMP180;50807;52.436;13.346;2022-09-09T02:02:13;100565.00;;;18.20
15845;BMP180;50807;52.436;13.346;2022-09-09T02:02:58;100567.00;;;18.10
15845;BMP180;50807;52.436;13.346;2022-09-09T02:03:32;100562.00;;;18.20
15845;BMP180;50807;52.436;13.346;2022-09-09T02:04:18;100566.00;;;18.10
15845;BMP180;50807;52.436;13.346;2022-09-09T02:04:57;100571.00;;;18.10
15845;BMP180;50807;52.436;13.346;2022-09-09T02:05:37;100572.00;;;18.10
15845;BMP180;50807;52.436;13.346;2022-09-09T02:06:25;100570.00;;;18.10
15845;BMP180;50807;52.436;13.346;2022-09-09T02:06:57;100574.00;;;18.20
15845;BMP180;50807;52.436;13.346;2022-09-09T02:07:39;100571.00;;;18.10
15845;BMP180;50807;52.436;13.346;2022-09-09T02:08:18;100568.00;;;18.10
15845;BMP180;50807;52.436;13.346;2022-09-09T02:08:55;100571.00;;;18.10
15845;BMP180;50807;52.436;13.346;2022-09-09T02:09:29;100569.00;;;18.20
15845;BMP180;50807;52.436;13.346;2022-09-09T02:10:10;100576.00;;;18.10
15845;BMP180;50807;52.436;13.346;2022-09-09T02:10:48;100575.00;;;18.10
15845;BMP180;50807;52.436;13.346;2022-09-09T02:11:25;100577.00;;;18.10
15845;BMP180;50807;52.436;13.346;2022-09-09T02:12:06;100572.00;;;18.10
15845;BMP180;50807;52.436;13.346;2022-09-09T02:12:44;100575.00;;;18.10
15845;BMP180;50807;52.436;13.346;2022-09-09T02:13:20;100571.00;;;18.10
15845;BMP180;50807;52.436;13.346;2022-09-09T02:13:57;100564.00;;;18.10
15845;BMP180;50807;52.436;13.346;2022-09-09T02:14:37;100573.00;;;18.10
15845;BMP180;50807;52.436;13.346;2022-09-09T02:15:22;100578.00;;;18.00
15845;BMP180;50807;52.436;13.346;2022-09-09T02:16:00;100577.00;;;18.00
15845;BMP180;50807;52.436;13.346;2022-09-09T02:16:39;100570.00;;;18.00
15845;BMP180;50807;52.436;13.346;2022-09-09T02:17:14;100575.00;;;18.10
15845;BMP180;50807;52.436;13.346;2022-09-09T02:17:51;100576.00;;;18.00
15845;BMP180;50807;52.436;13.346;2022-09-09T02:18:28;100573.00;;;18.00
15845;BMP180;50807;52.436;13.346;2022-09-09T02:19:06;100570.00;;;18.00
15845;BMP180;50807;52.436;13.346;2022-09-09T02:19:44;100569.00;;;18.00
15845;BMP180;50807;52.436;13.346;2022-09-09T02:20:21;100566.00;;;18.00
15845;BMP180;50807;52.436;13.346;2022-09-09T02:20:57;100565.00;;;18.00
15845;BMP180;50807;52.436;13.346;2022-09-09T02:21:31;100562.00;;;18.00
15845;BMP180;50807;52.436;13.346;2022-09-09T02:22:05;100571.00;;;18.10
15845;BMP180;50807;52.436;13.346;2022-09-09T02:22:41;100565.00;;;18.00
15845;BMP180;50807;52.436;13.346;2022-09-09T02:23:15;100564.00;;;18.00
15845;BMP180;50807;52.436;13.346;2022-09-09T02:23:49;100566.00;;;18.00
15845;BMP180;50807;52.436;13.346;2022-09-09T02:24:23;100559.00;;;18.00
15845;BMP180;50807;52.436;13.346;2022-09-09T02:24:57;100570.00;;;18.00
15845;BMP180;50807;52.436;13.346;2022-09-09T02:25:30;100571.00;;;18.00
15845;BMP180;50807;52.436;13.346;2022-09-09T02:26:02;100562.00;;;18.10
15845;BMP180;50807;52.436;13.346;2022-09-09T02:26:39;100569.00;;;18.00
15845;BMP180;50807;52.436;13.346;2022-09-09T02:27:14;100565.00;;;18.00
15845;BMP180;50807;52.436;13.346;2022-09-09T02:27:50;100559.00;;;18.00
15845;BMP180;50807;52.436;13.346;2022-09-09T02:28:24;100573.00;;;18.00
15845;BMP180;50807;52.436;13.346;2022-09-09T02:29:01;100566.00;;;18.00
15845;BMP180;50807;52.436;13.346;2022-09-09T02:29:38;100570.00;;;18.00
15845;BMP180;50807;52.436;13.346;2022-09-09T02:30:11;100569.00;;;18.10
15845;BMP180;50807;52.436;13.346;2022-09-09T02:30:46;100568.00;;;18.00
15845;BMP180;50807;52.436;13.346;2022-09-09T02:31:22;100566.00;;;18.00
15845;BMP180;50807;52.436;13.346;2022-09-09T02:31:58;100570.00;;;18.00
15845;BMP180;50807;52.436;13.346;2022-09-09T02:32:32;100565.00;;;18.00
15845;BMP180;50807;52.436;13.346;2022-09-09T02:33:07;100573.00;;;18.00
15845;BMP180;50807;52.436;13.346;2022-09-09T02:33:45;100569.00;;;18.00
15845;BMP180;50807;52.436;13.346;2022-09-09T02:34:23;100570.00;;;18.00
15845;BMP180;50807;52.436;13.346;2022-09-09T02:35:00;100568.00;;;18.00
15845;BMP180;50807;52.436;13.346;2022-09-09T02:35:35;100574.00;;;18.00
15845;BMP180;50807;52.436;13.346;2022-09-09T02:36:10;100561.00;;;18.00
15845;BMP180;50807;52.436;13.346;2022-09-09T02:36:45;100565.00;;;18.00
15845;BMP180;50807;52.436;13.346;2022-09-09T02:37:20;100566.00;;;18.00
15845;BMP180;50807;52.436;13.346;2022-09-09T02:37:57;100574.00;;;17.90
15845;BMP180;50807;52.436;13.346;2022-09-09T02:38:36;100565.00;;;17.90
15845;BMP180;50807;52.436;13.346;2022-09-09T02:39:11;100559.00;;;17.90
15845;BMP180;50807;52.436;13.346;2022-09-09T02:39:42;100566.00;;;17.90
15845;BMP180;50807;52.436;13.346;2022-09-09T02:40:14;100562.00;;;18.00
15845;BMP180;50807;52.436;13.346;2022-09-09T02:40:46;100565.00;;;18.00
15845;BMP180;50807;52.436;13.346;2022-09-09T02:41:19;100554.00;;;18.00
15845;BMP180;50807;52.436;13.346;2022-09-09T02:41:52;100556.00;;;18.00
15845;BMP180;50807;52.436;13.346;2022-09-09T02:42:25;100556.00;;;18.00
15845;BMP180;50807;52.436;13.346;2022-09-09T02:42:56;100555.00;;;18.00
15845;BMP180;50807;52.436;13.346;2022-09-09T02:43:31;100557.00;;;18.00
15845;BMP180;50807;52.436;13.346;2022-09-09T02:44:09;100558.00;;;17.90
15845;BMP180;50807;52.436;13.346;2022-09-09T02:44:41;100560.00;;;18.00
15845;BMP180;50807;52.436;13.346;2022-09-09T02:45:16;100554.00;;;18.00
15845;BMP180;50807;52.436;13.346;2022-09-09T02:45:57;100562.00;;;17.90
15845;BMP180;50807;52.436;13.346;2022-09-09T02:46:48;100562.00;;;17.90
15845;BMP180;50807;52.436;13.346;2022-09-09T02:47:32;100564.00;;;17.90
15845;BMP180;50807;52.436;13.346;2022-09-09T02:48:16;100565.00;;;17.80
15845;BMP180;50807;52.436;13.346;2022-09-09T02:48:59;100560.00;;;17.80
15845;BMP180;50807;52.436;13.346;2022-09-09T02:49:43;100568.00;;;17.80
15845;BMP180;50807;52.436;13.346;2022-09-09T02:50:25;100567.00;;;17.90
15845;BMP180;50807;52.436;13.346;2022-09-09T02:51:06;100561.00;;;17.80
15845;BMP180;50807;52.436;13.346;2022-09-09T02:51:51;100567.00;;;17.80
15845;BMP180;50807;52.436;13.346;2022-09-09T02:52:33;100570.00;;;17.80
15845;BMP180;50807;52.436;13.346;2022-09-09T02:53:14;100570.00;;;17.90
15845;BMP180;50807;52.436;13.346;2022-09-09T02:53:56;100568.00;;;17.80
15845;BMP180;50807;52.436;13.346;2022-09-09T02:54:33;100572.00;;;17.90
15845;BMP180;50807;52.436;13.346;2022-09-09T02:55:12;100564.00;;;17.90
15845;BMP180;50807;52.436;13.346;2022-09-09T02:55:49;100560.00;;;17.90
15845;BMP180;50807;52.436;13.346;2022-09-09T02:56:30;100561.00;;;17.90
15845;BMP180;50807;52.436;13.346;2022-09-09T02:57:10;100561.00;;;17.90
15845;BMP180;50807;52.436;13.346;2022-09-09T02:57:46;100562.00;;;17.90
15845;BMP180;50807;52.436;13.346;2022-09-09T02:58:19;100563.00;;;18.00
15845;BMP180;50807;52.436;13.346;2022-09-09T02:58:50;100562.00;;;18.00
15845;BMP180;50807;52.436;13.346;2022-09-09T02:59:24;100565.00;;;18.00
15845;BMP180;50807;52.436;13.346;2022-09-09T02:59:58;100560.00;;;18.00
15845;BMP180;50807;52.436;13.346;2022-09-09T03:00:30;100563.00;;;18.00
15845;BMP180;50807;52.436;13.346;2022-09-09T03:01:02;100560.00;;;18.00
15845;BMP180;50807;52.436;13.346;2022-09-09T03:01:33;100572.00;;;18.00
15845;BMP180;50807;52.436;13.346;2022-09-09T03:02:06;100566.00;;;18.00
15845;BMP180;50807;52.436;13.346;2022-09-09T03:02:42;100571.00;;;18.00
15845;BMP180;50807;52.436;13.346;2022-09-09T03:03:13;100565.00;;;18.00
15845;BMP180;50807;52.436;13.346;2022-09-09T03:03:44;100572.00;;;18.00
15845;BMP180;50807;52.436;13.346;2022-09-09T03:04:17;100573.00;;;18.00
15845;BMP180;50807;52.436;13.346;2022-09-09T03:04:47;100569.00;;;18.00
15845;BMP180;50807;52.436;13.346;2022-09-09T03:05:21;100572.00;;;18.00
15845;BMP180;50807;52.436;13.346;2022-09-09T03:05:54;100569.00;;;18.00
15845;BMP180;50807;52.436;13.346;2022-09-09T03:06:25;100567.00;;;18.00
15845;BMP180;50807;52.436;13.346;2022-09-09T03:06:56;100567.00;;;18.00
15845;BMP180;50807;52.436;13.346;2022-09-09T03:07:28;100576.00;;;18.00
15845;BMP180;50807;52.436;13.346;2022-09-09T03:07:59;100565.00;;;18.00
15845;BMP180;50807;52.436;13.346;2022-09-09T03:08:30;100572.00;;;18.00
15845;BMP180;50807;52.436;13.346;2022-09-09T03:09:01;100569.00;;;18.00
15845;BMP180;50807;52.436;13.346;2022-09-09T03:09:33;100577.00;;;18.00
15845;BMP180;50807;52.436;13.346;2022-09-09T03:10:06;100565.00;;;17.90
15845;BMP180;50807;52.436;13.346;2022-09-09T03:10:37;100571.00;;;18.00
15845;BMP180;50807;52.436;13.346;2022-09-09T03:11:09;100565.00;;;18.00
15845;BMP180;50807;52.436;13.346;2022-09-09T03:11:40;100565.00;;;17.90
15845;BMP180;50807;52.436;13.346;2022-09-09T03:12:11;100579.00;;;18.00
15845;BMP180;50807;52.436;13.346;2022-09-09T03:12:43;100575.00;;;18.00
15845;BMP180;50807;52.436;13.346;2022-09-09T03:13:15;100578.00;;;18.00
15845;BMP180;50807;52.436;13.346;2022-09-09T03:13:46;100575.00;;;17.90
15845;BMP180;50807;52.436;13.346;2022-09-09T03:14:17;100578.00;;;17.90
15845;BMP180;50807;52.436;13.346;2022-09-09T03:14:51;100578.00;;;17.90
15845;BMP180;50807;52.436;13.346;2022-09-09T03:15:23;100574.00;;;17.90
15845;BMP180;50807;52.436;13.346;2022-09-09T03:15:55;100579.00;;;17.90
15845;BMP180;50807;52.436;13.346;2022-09-09T03:16:25;100579.00;;;17.90
15845;BMP180;50807;52.436;13.346;2022-09-09T03:16:58;100579.00;;;17.90
15845;BMP180;50807;52.436;13.346;2022-09-09T03:17:31;100576.00;;;17.90
15845;BMP180;50807;52.436;13.346;2022-09-09T03:18:02;100577.00;;;17.90
15845;BMP180;50807;52.436;13.346;2022-09-09T03:18:34;100588.00;;;17.90
15845;BMP180;50807;52.436;13.346;2022-09-09T03:19:05;100595.00;;;17.90
15845;BMP180;50807;52.436;13.346;2022-09-09T03:19:37;100589.00;;;17.90
15845;BMP180;50807;52.436;13.346;2022-09-09T03:20:10;100590.00;;;17.90
15845;BMP180;50807;52.436;13.346;2022-09-09T03:20:42;100590.00;;;17.90
15845;BMP180;50807;52.436;13.346;2022-09-09T03:21:13;100597.00;;;17.90
15845;BMP180;50807;52.436;13.346;2022-09-09T03:21:45;100592.00;;;17.90
15845;BMP180;50807;52.436;13.346;2022-09-09T03:22:16;100590.00;;;17.90
15845;BMP180;50807;52.436;13.346;2022-09-09T03:22:47;100596.00;;;17.90
15845;BMP180;50807;52.436;13.346;2022-09-09T03:23:19;100590.00;;;17.80
15845;BMP180;50807;52.436;13.346;2022-09-09T03:23:49;100594.00;;;17.90
15845;BMP180;50807;52.436;13.346;2022-09-09T03:24:20;100593.00;;;17.90
15845;BMP180;50807;52.436;13.346;2022-09-09T03:24:53;100580.00;;;17.90
15845;BMP180;50807;52.436;13.346;2022-09-09T03:25:24;100603.00;;;17.80
15845;BMP180;50807;52.436;13.346;2022-09-09T03:25:56;100597.00;;;17.90
15845;BMP180;50807;52.436;13.346;2022-09-09T03:26:29;100591.00;;;17.90
15845;BMP180;50807;52.436;13.346;2022-09-09T03:27:00;100602.00;;;17.90
15845;BMP180;50807;52.436;13.346;2022-09-09T03:27:32;100589.00;;;17.90
15845;BMP180;50807;52.436;13.346;2022-09-09T03:28:05;100593.00;;;17.90
15845;BMP180;50807;52.436;13.346;2022-09-09T03:28:37;100593.00;;;17.90
15845;BMP180;50807;52.436;13.346;2022-09-09T03:29:08;100591.00;;;17.90
15845;BMP180;50807;52.436;13.346;2022-09-09T03:29:40;100593.00;;;17.90
15845;BMP180;50807;52.436;13.346;2022-09-09T03:30:11;100592.00;;;17.90
15845;BMP180;50807;52.436;13.346;2022-09-09T03:30:42;100587.00;;;17.90
15845;BMP180;50807;52.436;13.346;2022-09-09T03:31:14;100591.00;;;17.90
15845;BMP180;50807;52.436;13.346;2022-09-09T03:31:45;100601.00;;;17.90
15845;BMP180;50807;52.436;13.346;2022-09-09T03:32:16;100589.00;;;17.90
15845;BMP180;50807;52.436;13.346;2022-09-09T03:32:48;100597.00;;;17.90